createdAt,value
2016-09-07T00:00:05.056Z,1022.78
2016-09-07T00:01:05.083Z,1022.76
2016-09-07T00:02:05.105Z,1022.7
2016-09-07T00:04:05.154Z,1022.73
2016-09-07T00:05:05.183Z,1022.76
2016-09-07T00:06:05.204Z,1022.73
2016-09-07T00:07:05.224Z,1022.74
2016-09-07T00:08:05.255Z,1022.7
2016-09-07T00:09:05.329Z,1022.73
2016-09-07T00:10:05.297Z,1022.71
2016-09-07T00:11:05.321Z,1022.68
2016-09-07T00:12:05.346Z,1022.66
2016-09-07T00:13:05.369Z,1022.65
2016-09-07T00:14:05.396Z,1022.7
2016-09-07T00:15:05.418Z,1022.68
2016-09-07T00:16:05.449Z,1022.68
2016-09-07T00:17:05.475Z,1022.67
2016-09-07T00:18:05.491Z,1022.65
2016-09-07T00:20:05.549Z,1022.69
2016-09-07T00:21:05.563Z,1022.62
2016-09-07T00:22:05.587Z,1022.62
2016-09-07T00:23:05.618Z,1022.62
2016-09-07T00:24:05.638Z,1022.7
2016-09-07T00:25:05.666Z,1022.71
2016-09-07T00:26:05.690Z,1022.68
2016-09-07T00:27:05.708Z,1022.69
2016-09-07T00:28:05.734Z,1022.64
2016-09-07T00:29:05.758Z,1022.69
2016-09-07T00:30:05.780Z,1022.66
2016-09-07T00:31:05.806Z,1022.67
2016-09-07T00:32:05.828Z,1022.63
2016-09-07T00:33:05.852Z,1022.64
2016-09-07T00:34:05.877Z,1022.56
2016-09-07T00:36:05.924Z,1022.62
2016-09-07T00:37:05.949Z,1022.65
2016-09-07T00:38:05.975Z,1022.63
2016-09-07T00:39:06.003Z,1022.58
2016-09-07T00:40:06.028Z,1022.62
2016-09-07T00:41:06.047Z,1022.58
2016-09-07T00:42:06.069Z,1022.58
2016-09-07T00:43:06.094Z,1022.56
2016-09-07T00:44:06.123Z,1022.55
2016-09-07T00:45:06.141Z,1022.52
2016-09-07T00:46:06.164Z,1022.52
2016-09-07T00:47:06.188Z,1022.53
2016-09-07T00:48:06.212Z,1022.54
2016-09-07T00:49:06.237Z,1022.58
2016-09-07T00:50:06.262Z,1022.56
2016-09-07T00:52:06.310Z,1022.5
2016-09-07T00:53:06.335Z,1022.51
2016-09-07T00:54:06.356Z,1022.49
2016-09-07T00:55:06.387Z,1022.55
2016-09-07T00:56:06.404Z,1022.52
2016-09-07T00:57:06.430Z,1022.55
2016-09-07T00:58:06.452Z,1022.57
2016-09-07T00:59:06.478Z,1022.51
2016-09-07T01:00:06.500Z,1022.53
2016-09-07T01:01:06.525Z,1022.54
2016-09-07T01:02:06.548Z,1022.54
2016-09-07T01:03:06.571Z,1022.56
2016-09-07T01:04:06.595Z,1022.58
2016-09-07T01:05:06.620Z,1022.53
2016-09-07T01:07:06.668Z,1022.49
2016-09-07T01:08:06.693Z,1022.49
2016-09-07T01:09:06.716Z,1022.53
2016-09-07T01:10:06.739Z,1022.52
2016-09-07T01:11:06.815Z,1022.54
2016-09-07T01:12:06.786Z,1022.45
2016-09-07T01:13:06.813Z,1022.47
2016-09-07T01:14:06.837Z,1022.44
2016-09-07T01:15:06.864Z,1022.45
2016-09-07T01:16:06.882Z,1022.47
2016-09-07T01:17:06.908Z,1022.44
2016-09-07T01:18:06.930Z,1022.42
2016-09-07T01:19:06.959Z,1022.48
2016-09-07T01:20:06.977Z,1022.48
2016-09-07T01:21:07.002Z,1022.46
2016-09-07T01:22:07.032Z,1022.45
2016-09-07T01:23:07.049Z,1022.43
2016-09-07T01:24:07.073Z,1022.44
2016-09-07T01:25:07.099Z,1022.43
2016-09-07T01:26:07.126Z,1022.42
2016-09-07T01:27:07.144Z,1022.44
2016-09-07T01:28:07.168Z,1022.45
2016-09-07T01:29:07.198Z,1022.41
2016-09-07T01:30:07.217Z,1022.4
2016-09-07T01:31:07.239Z,1022.44
2016-09-07T01:32:07.265Z,1022.36
2016-09-07T01:33:07.294Z,1022.36
2016-09-07T01:34:07.310Z,1022.37
2016-09-07T01:35:07.334Z,1022.37
2016-09-07T01:36:07.360Z,1022.39
2016-09-07T01:37:07.382Z,1022.43
2016-09-07T01:39:07.431Z,1022.42
2016-09-07T01:40:07.459Z,1022.51
2016-09-07T01:41:07.483Z,1022.46
2016-09-07T01:42:07.503Z,1022.48
2016-09-07T01:43:07.531Z,1022.47
2016-09-07T01:44:07.548Z,1022.42
2016-09-07T01:45:07.577Z,1022.4
2016-09-07T01:46:07.596Z,1022.4
2016-09-07T01:47:07.621Z,1022.42
2016-09-07T01:48:07.642Z,1022.43
2016-09-07T01:49:07.673Z,1022.44
2016-09-07T01:50:07.690Z,1022.43
2016-09-07T01:51:07.715Z,1022.41
2016-09-07T01:52:07.737Z,1022.39
2016-09-07T01:53:07.761Z,1022.4
2016-09-07T01:55:07.811Z,1022.29
2016-09-07T01:56:07.832Z,1022.32
2016-09-07T01:57:07.858Z,1022.31
2016-09-07T01:58:07.886Z,1022.32
2016-09-07T01:59:07.903Z,1022.36
2016-09-07T02:00:07.932Z,1022.35
2016-09-07T02:01:07.956Z,1022.36
2016-09-07T02:02:07.974Z,1022.31
2016-09-07T02:03:07.999Z,1022.31
2016-09-07T02:04:08.021Z,1022.31
2016-09-07T02:05:08.045Z,1022.28
2016-09-07T02:06:08.068Z,1022.28
2016-09-07T02:07:08.091Z,1022.31
2016-09-07T02:08:08.121Z,1022.27
2016-09-07T02:09:08.139Z,1022.25
2016-09-07T02:11:08.186Z,1022.24
2016-09-07T02:12:08.213Z,1022.28
2016-09-07T02:13:08.240Z,1022.23
2016-09-07T02:14:08.259Z,1022.2
2016-09-07T02:15:08.280Z,1022.2
2016-09-07T02:16:08.304Z,1022.17
2016-09-07T02:17:08.384Z,1022.17
2016-09-07T02:18:08.354Z,1022.16
2016-09-07T02:19:08.375Z,1022.18
2016-09-07T02:20:08.398Z,1022.16
2016-09-07T02:21:08.422Z,1022.17
2016-09-07T02:22:08.447Z,1022.14
2016-09-07T02:23:08.475Z,1022.13
2016-09-07T02:24:08.499Z,1022.12
2016-09-07T02:25:08.516Z,1022.11
2016-09-07T02:27:08.565Z,1022.09
2016-09-07T02:28:08.593Z,1022.1
2016-09-07T02:29:08.610Z,1022.11
2016-09-07T02:30:08.640Z,1022.06
2016-09-07T02:31:08.663Z,1022.05
2016-09-07T02:32:08.681Z,1022.05
2016-09-07T02:33:08.710Z,1022.05
2016-09-07T02:34:08.728Z,1022.06
2016-09-07T02:35:08.754Z,1022.07
2016-09-07T02:36:08.780Z,1022.08
2016-09-07T02:37:08.800Z,1022.08
2016-09-07T02:38:08.822Z,1022.09
2016-09-07T02:39:08.851Z,1022.09
2016-09-07T02:40:08.870Z,1022.06
2016-09-07T02:42:08.922Z,1022.03
2016-09-07T02:43:08.946Z,1022.02
2016-09-07T02:44:08.963Z,1022.05
2016-09-07T02:45:08.989Z,1022.1
2016-09-07T02:46:09.011Z,1022.06
2016-09-07T02:47:09.040Z,1022
2016-09-07T02:48:09.057Z,1021.98
2016-09-07T02:49:09.081Z,1021.92
2016-09-07T02:50:09.104Z,1021.9
2016-09-07T02:51:09.127Z,1021.9
2016-09-07T02:52:09.151Z,1021.89
2016-09-07T02:53:09.177Z,1021.87
2016-09-07T02:54:09.197Z,1021.84
2016-09-07T02:55:09.221Z,1021.82
2016-09-07T02:56:09.247Z,1021.82
2016-09-07T02:57:09.275Z,1021.84
2016-09-07T02:58:09.293Z,1021.83
2016-09-07T02:59:09.315Z,1021.8
2016-09-07T03:00:09.338Z,1021.78
2016-09-07T03:01:09.367Z,1021.76
2016-09-07T03:02:09.385Z,1021.83
2016-09-07T03:03:09.408Z,1021.86
2016-09-07T03:04:09.438Z,1021.81
2016-09-07T03:05:09.455Z,1021.81
2016-09-07T03:06:09.483Z,1021.73
2016-09-07T03:07:09.502Z,1021.76
2016-09-07T03:08:09.527Z,1021.72
2016-09-07T03:09:09.548Z,1021.71
2016-09-07T03:10:09.573Z,1021.77
2016-09-07T03:11:09.602Z,1021.75
2016-09-07T03:12:09.625Z,1021.72
2016-09-07T03:14:09.667Z,1021.74
2016-09-07T03:15:09.691Z,1021.74
2016-09-07T03:16:09.717Z,1021.73
2016-09-07T03:17:09.740Z,1021.7
2016-09-07T03:18:09.765Z,1021.72
2016-09-07T03:19:09.783Z,1021.74
2016-09-07T03:20:09.811Z,1021.71
2016-09-07T03:21:09.830Z,1021.76
2016-09-07T03:22:09.855Z,1021.73
2016-09-07T03:23:09.880Z,1021.73
2016-09-07T03:24:09.905Z,1021.69
2016-09-07T03:25:09.922Z,1021.67
2016-09-07T03:26:09.946Z,1021.67
2016-09-07T03:27:09.968Z,1021.66
2016-09-07T03:28:09.993Z,1021.56
2016-09-07T03:30:10.038Z,1021.6
2016-09-07T03:31:10.062Z,1021.65
2016-09-07T03:32:10.084Z,1021.67
2016-09-07T03:33:10.109Z,1021.65
2016-09-07T03:34:10.131Z,1021.66
2016-09-07T03:35:10.161Z,1021.63
2016-09-07T03:36:10.178Z,1021.6
2016-09-07T03:37:10.202Z,1021.65
2016-09-07T03:38:10.225Z,1021.65
2016-09-07T03:39:10.247Z,1021.62
2016-09-07T03:40:10.272Z,1021.6
2016-09-07T03:41:10.296Z,1021.56
2016-09-07T03:42:10.318Z,1021.57
2016-09-07T03:43:10.341Z,1021.57
2016-09-07T03:44:10.365Z,1021.58
2016-09-07T03:46:10.417Z,1021.5
2016-09-07T03:47:10.437Z,1021.45
2016-09-07T03:48:10.458Z,1021.49
2016-09-07T03:49:10.481Z,1021.51
2016-09-07T03:50:10.503Z,1021.53
2016-09-07T03:51:10.527Z,1021.54
2016-09-07T03:52:10.551Z,1021.5
2016-09-07T03:53:10.576Z,1021.49
2016-09-07T03:54:10.603Z,1021.54
2016-09-07T03:55:10.623Z,1021.49
2016-09-07T03:56:10.643Z,1021.48
2016-09-07T03:57:10.673Z,1021.5
2016-09-07T03:58:10.690Z,1021.47
2016-09-07T03:59:10.716Z,1021.48
2016-09-07T04:00:10.736Z,1021.46
2016-09-07T04:02:10.790Z,1021.43
2016-09-07T04:03:10.809Z,1021.44
2016-09-07T04:04:10.829Z,1021.46
2016-09-07T04:05:10.855Z,1021.42
2016-09-07T04:06:10.877Z,1021.44
2016-09-07T04:07:10.899Z,1021.41
2016-09-07T04:08:10.928Z,1021.4
2016-09-07T04:09:10.951Z,1021.39
2016-09-07T04:10:10.969Z,1021.43
2016-09-07T04:11:10.991Z,1021.45
2016-09-07T04:12:11.015Z,1021.45
2016-09-07T04:13:11.039Z,1021.43
2016-09-07T04:14:11.063Z,1021.43
2016-09-07T04:15:11.092Z,1021.45
2016-09-07T04:17:11.138Z,1021.47
2016-09-07T04:18:11.154Z,1021.47
2016-09-07T04:19:11.178Z,1021.46
2016-09-07T04:20:11.201Z,1021.47
2016-09-07T04:21:11.226Z,1021.44
2016-09-07T04:22:11.247Z,1021.46
2016-09-07T04:23:11.271Z,1021.41
2016-09-07T04:24:11.296Z,1021.44
2016-09-07T04:25:11.322Z,1021.42
2016-09-07T04:26:11.346Z,1021.43
2016-09-07T04:27:11.364Z,1021.47
2016-09-07T04:28:11.393Z,1021.45
2016-09-07T04:29:11.409Z,1021.42
2016-09-07T04:30:11.446Z,1021.41
2016-09-07T04:31:11.458Z,1021.43
2016-09-07T04:32:11.486Z,1021.42
2016-09-07T04:33:11.502Z,1021.39
2016-09-07T04:34:11.546Z,1021.43
2016-09-07T04:35:11.549Z,1021.46
2016-09-07T04:36:11.574Z,1021.43
2016-09-07T04:37:11.603Z,1021.44
2016-09-07T04:38:11.620Z,1021.4
2016-09-07T04:39:11.648Z,1021.42
2016-09-07T04:40:11.664Z,1021.39
2016-09-07T04:41:11.708Z,1021.42
2016-09-07T04:42:11.712Z,1021.41
2016-09-07T04:43:11.741Z,1021.36
2016-09-07T04:44:11.759Z,1021.39
2016-09-07T04:45:11.787Z,1021.39
2016-09-07T04:46:11.811Z,1021.43
2016-09-07T04:47:11.834Z,1021.39
2016-09-07T04:49:11.880Z,1021.36
2016-09-07T04:50:11.900Z,1021.38
2016-09-07T04:51:11.926Z,1021.39
2016-09-07T04:52:11.946Z,1021.35
2016-09-07T04:53:11.967Z,1021.38
2016-09-07T04:54:11.991Z,1021.38
2016-09-07T04:55:12.019Z,1021.39
2016-09-07T04:56:12.037Z,1021.41
2016-09-07T04:57:12.062Z,1021.38
2016-09-07T04:58:12.085Z,1021.4
2016-09-07T04:59:12.107Z,1021.38
2016-09-07T05:00:12.130Z,1021.39
2016-09-07T05:01:12.153Z,1021.37
2016-09-07T05:02:12.182Z,1021.36
2016-09-07T05:03:12.199Z,1021.37
2016-09-07T05:05:12.247Z,1021.35
2016-09-07T05:06:12.269Z,1021.35
2016-09-07T05:07:12.296Z,1021.36
2016-09-07T05:08:12.316Z,1021.37
2016-09-07T05:09:12.339Z,1021.36
2016-09-07T05:10:12.364Z,1021.37
2016-09-07T05:11:12.388Z,1021.35
2016-09-07T05:12:12.410Z,1021.35
2016-09-07T05:13:12.432Z,1021.33
2016-09-07T05:14:12.456Z,1021.32
2016-09-07T05:15:12.482Z,1021.32
2016-09-07T05:16:12.503Z,1021.3
2016-09-07T05:17:12.527Z,1021.34
2016-09-07T05:18:12.550Z,1021.34
2016-09-07T05:19:12.575Z,1021.32
2016-09-07T05:21:12.619Z,1021.33
2016-09-07T05:22:12.643Z,1021.34
2016-09-07T05:23:12.673Z,1021.39
2016-09-07T05:24:12.692Z,1021.39
2016-09-07T05:25:12.713Z,1021.4
2016-09-07T05:26:12.737Z,1021.5
2016-09-07T05:27:12.761Z,1021.49
2016-09-07T05:28:12.786Z,1021.44
2016-09-07T05:29:12.808Z,1021.39
2016-09-07T05:30:12.832Z,1021.39
2016-09-07T05:31:12.855Z,1021.4
2016-09-07T05:32:12.879Z,1021.41
2016-09-07T05:33:12.903Z,1021.43
2016-09-07T05:34:12.927Z,1021.44
2016-09-07T05:35:12.950Z,1021.41
2016-09-07T05:37:13.001Z,1021.42
2016-09-07T05:38:13.030Z,1021.4
2016-09-07T05:39:13.047Z,1021.39
2016-09-07T05:40:13.071Z,1021.37
2016-09-07T05:41:13.095Z,1021.4
2016-09-07T05:42:13.124Z,1021.37
2016-09-07T05:43:13.142Z,1021.38
2016-09-07T05:44:13.166Z,1021.36
2016-09-07T05:45:13.190Z,1021.36
2016-09-07T05:46:13.221Z,1021.4
2016-09-07T05:47:13.240Z,1021.36
2016-09-07T05:48:13.269Z,1021.35
2016-09-07T05:49:13.294Z,1021.34
2016-09-07T05:50:13.312Z,1021.33
2016-09-07T05:52:13.364Z,1021.61
2016-09-07T05:53:13.390Z,1021.72
2016-09-07T05:54:13.408Z,1021.81
2016-09-07T05:55:13.433Z,1021.94
2016-09-07T05:56:13.458Z,1022.22
2016-09-07T05:57:13.484Z,1022.37
2016-09-07T05:58:13.517Z,1022.54
2016-09-07T05:59:13.536Z,1022.51
2016-09-07T06:00:13.564Z,1022.49
2016-09-07T06:01:13.597Z,1022.48
2016-09-07T06:02:13.616Z,1022.38
2016-09-07T06:03:13.645Z,1022.38
2016-09-07T06:04:13.677Z,1022.44
2016-09-07T06:05:13.699Z,1022.52
2016-09-07T06:06:13.735Z,1022.53
2016-09-07T06:07:13.759Z,1022.49
2016-09-07T06:08:13.785Z,1022.52
2016-09-07T06:09:13.817Z,1022.53
2016-09-07T06:10:13.860Z,1022.5
2016-09-07T06:11:13.881Z,1022.54
2016-09-07T06:12:13.910Z,1022.56
2016-09-07T06:13:13.935Z,1022.6
2016-09-07T06:14:13.966Z,1022.65
2016-09-07T06:15:13.996Z,1022.59
2016-09-07T06:16:14.027Z,1022.56
2016-09-07T06:17:14.061Z,1022.6
2016-09-07T06:18:14.091Z,1022.61
2016-09-07T06:19:14.123Z,1022.54
2016-09-07T06:20:14.154Z,1022.66
2016-09-07T06:21:14.187Z,1022.66
2016-09-07T06:22:14.218Z,1022.68
2016-09-07T06:24:14.284Z,1022.74
2016-09-07T06:25:14.317Z,1022.75
2016-09-07T06:26:14.355Z,1022.76
2016-09-07T06:27:14.384Z,1022.78
2016-09-07T06:28:14.422Z,1022.81
2016-09-07T06:29:14.451Z,1022.75
2016-09-07T06:30:14.482Z,1022.65
2016-09-07T06:31:14.516Z,1022.59
2016-09-07T06:32:14.548Z,1022.68
2016-09-07T06:33:14.587Z,1022.78
2016-09-07T06:34:14.614Z,1022.87
2016-09-07T06:35:14.649Z,1022.85
2016-09-07T06:36:14.681Z,1022.86
2016-09-07T06:37:14.716Z,1022.89
2016-09-07T06:38:14.750Z,1022.92
2016-09-07T06:40:14.819Z,1022.99
2016-09-07T06:41:14.851Z,1022.97
2016-09-07T06:42:14.886Z,1022.96
2016-09-07T06:43:14.917Z,1023.03
2016-09-07T06:44:14.956Z,1022.98
2016-09-07T06:45:14.985Z,1023.03
2016-09-07T06:46:15.020Z,1023.04
2016-09-07T06:47:15.054Z,1023.05
2016-09-07T06:48:15.086Z,1022.88
2016-09-07T06:49:15.123Z,1022.81
2016-09-07T06:50:15.155Z,1022.83
2016-09-07T06:51:15.192Z,1022.91
2016-09-07T06:52:15.223Z,1022.81
2016-09-07T06:53:15.261Z,1022.72
2016-09-07T06:54:15.295Z,1022.56
2016-09-07T06:56:15.362Z,1022.68
2016-09-07T06:57:15.402Z,1022.64
2016-09-07T06:58:15.438Z,1022.67
2016-09-07T06:59:15.467Z,1022.64
2016-09-07T07:00:15.500Z,1022.59
2016-09-07T07:01:15.539Z,1022.58
2016-09-07T07:02:15.570Z,1022.54
2016-09-07T07:03:15.606Z,1022.52
2016-09-07T07:04:15.695Z,1022.44
2016-09-07T07:05:15.673Z,1022.46
2016-09-07T07:06:15.710Z,1022.37
2016-09-07T07:07:15.743Z,1022.37
2016-09-07T07:08:15.779Z,1022.46
2016-09-07T07:09:15.813Z,1022.45
2016-09-07T07:10:15.850Z,1022.49
2016-09-07T07:12:15.924Z,1022.37
2016-09-07T07:13:15.955Z,1022.34
2016-09-07T07:14:15.987Z,1022.49
2016-09-07T07:15:16.023Z,1022.42
2016-09-07T07:16:16.057Z,1022.46
2016-09-07T07:17:16.092Z,1022.44
2016-09-07T07:18:16.133Z,1022.52
2016-09-07T07:19:16.169Z,1022.47
2016-09-07T07:20:16.198Z,1022.45
2016-09-07T07:21:16.232Z,1022.43
2016-09-07T07:22:16.274Z,1022.35
2016-09-07T07:23:16.303Z,1022.35
2016-09-07T07:24:16.342Z,1022.36
2016-09-07T07:25:16.374Z,1022.33
2016-09-07T07:27:16.445Z,1022.29
2016-09-07T07:28:16.482Z,1022.28
2016-09-07T07:29:16.515Z,1022.21
2016-09-07T07:30:16.553Z,1022.22
2016-09-07T07:31:16.587Z,1022.17
2016-09-07T07:32:16.628Z,1022.17
2016-09-07T07:33:16.657Z,1022.14
2016-09-07T07:34:16.700Z,1022.18
2016-09-07T07:35:16.734Z,1022.11
2016-09-07T07:36:16.764Z,1022.12
2016-09-07T07:37:16.801Z,1022.09
2016-09-07T07:38:16.836Z,1022.13
2016-09-07T07:39:16.870Z,1022.08
2016-09-07T07:40:16.908Z,1022.08
2016-09-07T07:41:16.942Z,1022.06
2016-09-07T07:42:16.977Z,1022.05
2016-09-07T07:43:17.013Z,1022.02
2016-09-07T07:44:17.048Z,1022.02
2016-09-07T07:45:17.087Z,1022.01
2016-09-07T07:46:17.119Z,1022.04
2016-09-07T07:47:17.154Z,1021.99
2016-09-07T07:48:17.196Z,1021.97
2016-09-07T07:49:17.225Z,1021.84
2016-09-07T07:50:17.317Z,1021.8
2016-09-07T07:51:17.297Z,1021.76
2016-09-07T07:52:17.334Z,1021.74
2016-09-07T07:53:17.367Z,1021.67
2016-09-07T07:54:17.407Z,1021.61
2016-09-07T07:55:17.437Z,1021.57
2016-09-07T07:56:17.474Z,1021.6
2016-09-07T07:57:17.505Z,1021.55
2016-09-07T07:59:17.578Z,1021.55
2016-09-07T08:00:17.610Z,1021.54
2016-09-07T08:01:17.647Z,1021.55
2016-09-07T08:02:17.685Z,1021.46
2016-09-07T08:03:17.717Z,1021.48
2016-09-07T08:04:17.755Z,1021.5
2016-09-07T08:05:17.784Z,1021.48
2016-09-07T08:06:17.824Z,1021.49
2016-09-07T08:07:17.856Z,1021.44
2016-09-07T08:08:17.889Z,1021.47
2016-09-07T08:09:17.928Z,1021.42
2016-09-07T08:10:17.958Z,1021.39
2016-09-07T08:11:17.995Z,1021.39
2016-09-07T08:12:18.025Z,1021.42
2016-09-07T08:13:18.061Z,1021.4
2016-09-07T08:15:18.130Z,1021.37
2016-09-07T08:16:18.164Z,1021.39
2016-09-07T08:17:18.198Z,1021.38
2016-09-07T08:18:18.233Z,1021.4
2016-09-07T08:19:18.266Z,1021.39
2016-09-07T08:20:18.301Z,1021.37
2016-09-07T08:21:18.338Z,1021.34
2016-09-07T08:22:18.372Z,1021.33
2016-09-07T08:23:18.407Z,1021.29
2016-09-07T08:24:18.445Z,1021.29
2016-09-07T08:25:18.477Z,1021.26
2016-09-07T08:26:18.510Z,1021.27
2016-09-07T08:27:18.545Z,1021.25
2016-09-07T08:28:18.584Z,1021.25
2016-09-07T08:29:18.613Z,1021.3
2016-09-07T08:31:18.681Z,1021.23
2016-09-07T08:32:18.718Z,1021.19
2016-09-07T08:33:18.757Z,1021.22
2016-09-07T08:34:18.785Z,1021.25
2016-09-07T08:35:18.826Z,1021.23
2016-09-07T08:36:18.855Z,1021.23
2016-09-07T08:37:18.892Z,1021.24
2016-09-07T08:38:18.923Z,1021.27
2016-09-07T08:39:18.958Z,1021.2
2016-09-07T08:40:18.995Z,1021.19
2016-09-07T08:41:19.033Z,1021.19
2016-09-07T08:42:19.061Z,1021.16
2016-09-07T08:43:19.098Z,1021.18
2016-09-07T08:44:19.133Z,1021.18
2016-09-07T08:45:19.164Z,1021.19
2016-09-07T08:47:19.233Z,1021.15
2016-09-07T08:48:19.269Z,1021.15
2016-09-07T08:49:19.302Z,1021.11
2016-09-07T08:50:19.336Z,1021.1
2016-09-07T08:51:19.373Z,1021.13
2016-09-07T08:52:19.405Z,1021.11
2016-09-07T08:53:19.442Z,1021.08
2016-09-07T08:54:19.475Z,1021.05
2016-09-07T08:55:19.510Z,1021.07
2016-09-07T08:56:19.549Z,1021.05
2016-09-07T08:57:19.578Z,1021.02
2016-09-07T08:58:19.619Z,1020.98
2016-09-07T08:59:19.647Z,1020.98
2016-09-07T09:00:19.682Z,1021.01
2016-09-07T09:02:19.751Z,1021.03
2016-09-07T09:03:19.784Z,1021.05
2016-09-07T09:04:19.822Z,1021.02
2016-09-07T09:05:19.854Z,1021.02
2016-09-07T09:06:19.891Z,1020.98
2016-09-07T09:07:19.928Z,1020.96
2016-09-07T09:08:19.956Z,1020.96
2016-09-07T09:09:19.992Z,1020.93
2016-09-07T09:10:20.025Z,1020.94
2016-09-07T09:11:20.060Z,1020.95
2016-09-07T09:12:20.095Z,1020.94
2016-09-07T09:13:20.135Z,1020.91
2016-09-07T09:14:20.162Z,1020.92
2016-09-07T09:15:20.196Z,1020.88
2016-09-07T09:16:20.234Z,1020.89
2016-09-07T09:17:20.272Z,1020.88
2016-09-07T09:18:20.300Z,1020.85
2016-09-07T09:19:20.340Z,1020.82
2016-09-07T09:20:20.370Z,1020.81
2016-09-07T09:21:20.402Z,1020.83
2016-09-07T09:22:20.439Z,1020.82
2016-09-07T09:23:20.471Z,1020.78
2016-09-07T09:24:20.505Z,1020.76
2016-09-07T09:25:20.547Z,1020.7
2016-09-07T09:26:20.579Z,1020.74
2016-09-07T09:27:20.608Z,1020.75
2016-09-07T09:28:20.646Z,1020.72
2016-09-07T09:29:20.676Z,1020.72
2016-09-07T09:30:20.709Z,1020.68
2016-09-07T09:31:20.743Z,1020.7
2016-09-07T09:32:20.783Z,1020.68
2016-09-07T09:34:20.845Z,1020.62
2016-09-07T09:35:20.881Z,1020.62
2016-09-07T09:36:20.913Z,1020.58
2016-09-07T09:37:20.954Z,1020.56
2016-09-07T09:38:20.981Z,1020.59
2016-09-07T09:39:21.015Z,1020.58
2016-09-07T09:40:21.050Z,1020.55
2016-09-07T09:41:21.083Z,1020.55
2016-09-07T09:42:21.117Z,1020.51
2016-09-07T09:43:21.152Z,1020.53
2016-09-07T09:44:21.235Z,1020.47
2016-09-07T09:45:21.225Z,1020.53
2016-09-07T09:46:21.252Z,1020.46
2016-09-07T09:47:21.292Z,1020.47
2016-09-07T09:48:21.322Z,1020.49
2016-09-07T09:50:21.389Z,1020.49
2016-09-07T09:51:21.421Z,1020.41
2016-09-07T09:52:21.458Z,1020.45
2016-09-07T09:53:21.489Z,1020.46
2016-09-07T09:54:21.529Z,1020.43
2016-09-07T09:55:21.557Z,1020.41
2016-09-07T09:56:21.591Z,1020.34
2016-09-07T09:57:21.625Z,1020.35
2016-09-07T09:58:21.658Z,1020.32
2016-09-07T09:59:21.694Z,1020.28
2016-09-07T10:00:21.727Z,1020.29
2016-09-07T10:01:21.766Z,1020.28
2016-09-07T10:02:21.795Z,1020.28
2016-09-07T10:03:21.827Z,1020.27
2016-09-07T10:04:21.867Z,1020.21
2016-09-07T10:06:21.926Z,1020.28
2016-09-07T10:07:21.961Z,1020.27
2016-09-07T10:08:22.001Z,1020.28
2016-09-07T10:09:22.033Z,1020.25
2016-09-07T10:10:22.063Z,1020.28
2016-09-07T10:11:22.100Z,1020.24
2016-09-07T10:12:22.129Z,1020.25
2016-09-07T10:13:22.167Z,1020.22
2016-09-07T10:14:22.195Z,1020.21
2016-09-07T10:15:22.241Z,1020.2
2016-09-07T10:16:22.261Z,1020.21
2016-09-07T10:17:22.295Z,1020.22
2016-09-07T10:18:22.329Z,1020.15
2016-09-07T10:19:22.368Z,1020.16
2016-09-07T10:20:22.395Z,1020.14
2016-09-07T10:22:22.471Z,1020.09
2016-09-07T10:23:22.497Z,1020.11
2016-09-07T10:24:22.530Z,1020.06
2016-09-07T10:25:22.564Z,1020.1
2016-09-07T10:26:22.595Z,1020.09
2016-09-07T10:27:22.629Z,1020.06
2016-09-07T10:28:22.667Z,1020.02
2016-09-07T10:29:22.694Z,1020.03
2016-09-07T10:30:22.727Z,1020.03
2016-09-07T10:31:22.761Z,1020
2016-09-07T10:32:22.792Z,1020.01
2016-09-07T10:33:22.839Z,1020
2016-09-07T10:34:22.858Z,1019.96
2016-09-07T10:35:22.896Z,1019.94
2016-09-07T10:37:22.964Z,1019.97
2016-09-07T10:38:22.988Z,1019.96
2016-09-07T10:39:23.020Z,1019.94
2016-09-07T10:40:23.053Z,1019.93
2016-09-07T10:41:23.091Z,1019.94
2016-09-07T10:42:23.119Z,1019.92
2016-09-07T10:43:23.156Z,1019.9
2016-09-07T10:44:23.184Z,1019.9
2016-09-07T10:45:23.219Z,1019.9
2016-09-07T10:46:23.246Z,1019.84
2016-09-07T10:47:23.278Z,1019.87
2016-09-07T10:48:23.311Z,1019.79
2016-09-07T10:49:23.342Z,1019.79
2016-09-07T10:50:23.373Z,1019.75
2016-09-07T10:51:23.406Z,1019.74
2016-09-07T10:52:23.444Z,1019.71
2016-09-07T10:53:23.472Z,1019.71
2016-09-07T10:54:23.507Z,1019.71
2016-09-07T10:55:23.534Z,1019.7
2016-09-07T10:56:23.569Z,1019.69
2016-09-07T10:57:23.596Z,1019.73
2016-09-07T10:58:23.629Z,1019.73
2016-09-07T10:59:23.665Z,1019.69
2016-09-07T11:00:23.697Z,1019.66
2016-09-07T11:01:23.730Z,1019.68
2016-09-07T11:02:23.762Z,1019.65
2016-09-07T11:03:23.787Z,1019.63
2016-09-07T11:04:23.819Z,1019.67
2016-09-07T11:05:23.850Z,1019.62
2016-09-07T11:06:23.882Z,1019.61
2016-09-07T11:07:23.920Z,1019.64
2016-09-07T11:09:23.978Z,1019.62
2016-09-07T11:10:24.016Z,1019.61
2016-09-07T11:11:24.039Z,1019.59
2016-09-07T11:12:24.076Z,1019.55
2016-09-07T11:13:24.108Z,1019.59
2016-09-07T11:14:24.132Z,1019.54
2016-09-07T11:15:24.163Z,1019.55
2016-09-07T11:16:24.194Z,1019.51
2016-09-07T11:17:24.233Z,1019.53
2016-09-07T11:18:24.258Z,1019.46
2016-09-07T11:19:24.288Z,1019.42
2016-09-07T11:20:24.321Z,1019.39
2016-09-07T11:21:24.356Z,1019.4
2016-09-07T11:22:24.382Z,1019.38
2016-09-07T11:23:24.414Z,1019.41
2016-09-07T11:25:24.476Z,1019.32
2016-09-07T11:26:24.511Z,1019.3
2016-09-07T11:27:24.539Z,1019.34
2016-09-07T11:28:24.566Z,1019.33
2016-09-07T11:29:24.597Z,1019.34
2016-09-07T11:30:24.628Z,1019.32
2016-09-07T11:31:24.666Z,1019.27
2016-09-07T11:32:24.691Z,1019.31
2016-09-07T11:33:24.727Z,1019.31
2016-09-07T11:34:24.753Z,1019.26
2016-09-07T11:35:24.782Z,1019.25
2016-09-07T11:36:24.813Z,1019.26
2016-09-07T11:37:24.846Z,1019.27
2016-09-07T11:38:24.881Z,1019.25
2016-09-07T11:39:24.906Z,1019.26
2016-09-07T11:41:24.967Z,1019.2
2016-09-07T11:42:25.000Z,1019.21
2016-09-07T11:43:25.035Z,1019.18
2016-09-07T11:44:25.060Z,1019.21
2016-09-07T11:45:25.096Z,1019.18
2016-09-07T11:46:25.122Z,1019.15
2016-09-07T11:47:25.155Z,1019.13
2016-09-07T11:48:25.188Z,1019.15
2016-09-07T11:49:25.221Z,1019.11
2016-09-07T11:50:25.245Z,1019.12
2016-09-07T11:51:25.291Z,1019.08
2016-09-07T11:52:25.307Z,1019.03
2016-09-07T11:53:25.340Z,1019.07
2016-09-07T11:54:25.368Z,1019.07
2016-09-07T11:55:25.400Z,1019.07
2016-09-07T11:57:25.461Z,1018.97
2016-09-07T11:58:25.492Z,1018.97
2016-09-07T11:59:25.528Z,1018.98
2016-09-07T12:00:25.554Z,1018.96
2016-09-07T12:01:25.584Z,1018.95
2016-09-07T12:02:25.627Z,1018.92
2016-09-07T12:03:25.650Z,1018.96
2016-09-07T12:04:25.675Z,1018.93
2016-09-07T12:05:25.707Z,1018.92
2016-09-07T12:06:25.738Z,1018.95
2016-09-07T12:07:25.767Z,1018.92
2016-09-07T12:08:25.800Z,1018.89
2016-09-07T12:09:25.831Z,1018.92
2016-09-07T12:10:25.861Z,1018.97
2016-09-07T12:12:25.924Z,1018.91
2016-09-07T12:13:26.003Z,1018.9
2016-09-07T12:14:25.983Z,1018.9
2016-09-07T12:15:26.014Z,1018.86
2016-09-07T12:16:26.052Z,1018.85
2016-09-07T12:17:26.077Z,1018.84
2016-09-07T12:18:26.106Z,1018.81
2016-09-07T12:19:26.137Z,1018.79
2016-09-07T12:20:26.177Z,1018.84
2016-09-07T12:21:26.198Z,1018.76
2016-09-07T12:22:26.228Z,1018.8
2016-09-07T12:23:26.259Z,1018.81
2016-09-07T12:24:26.289Z,1018.77
2016-09-07T12:25:26.326Z,1018.76
2016-09-07T12:26:26.350Z,1018.8
2016-09-07T12:27:26.387Z,1018.75
2016-09-07T12:28:26.411Z,1018.73
2016-09-07T12:29:26.442Z,1018.72
2016-09-07T12:30:26.475Z,1018.68
2016-09-07T12:31:26.503Z,1018.67
2016-09-07T12:32:26.534Z,1018.58
2016-09-07T12:33:26.570Z,1018.58
2016-09-07T12:34:26.597Z,1018.6
2016-09-07T12:35:26.623Z,1018.55
2016-09-07T12:36:26.654Z,1018.52
2016-09-07T12:37:26.685Z,1018.52
2016-09-07T12:38:26.723Z,1018.5
2016-09-07T12:39:26.745Z,1018.5
2016-09-07T12:40:26.778Z,1018.5
2016-09-07T12:41:26.809Z,1018.48
2016-09-07T12:42:26.836Z,1018.44
2016-09-07T12:44:26.898Z,1018.43
2016-09-07T12:45:26.934Z,1018.4
2016-09-07T12:46:26.960Z,1018.39
2016-09-07T12:47:26.988Z,1018.39
2016-09-07T12:48:27.019Z,1018.38
2016-09-07T12:49:27.049Z,1018.37